Airfield :
LOGIN :

Register | Disclaimer

   EN    FR    IT 

 










Legend :    VFR   Marginal VFR   IFR   Intensive IFR   Very Intensive IFR
Visi :
Ceiling :
>= 8 km
>= 3000ft
5 to 8 km
1000 to 3000 ft
1500m to 5 km
500 to 1000 ft
800 to 1500m
200 to 500 ft
< 800m
< 200 ft
Symbols :   Thunderstorms  Fog  Heavy snow  Heavy precipitations  Wind > 20 kt
SIGMETs :     Misc.  Thunderstorms  Icing  Turbulence  Mountain Waves  Volcanic Ashes







- Airport Elevation : 299 ft
- IATA code : EDM
- Download approach charts


LFRI - La Roche Sur Yon - Les Ajoncs

CURRENT METAR :
  • 151530Z AUTO 31012KT 9999 BKN027 BKN045 09/05 Q1005 NOSIG

EXPIRED METARs :
  • 151500Z AUTO 31012KT 9999 SCT032 SCT039 BKN048 09/04 Q1004 TEMPO 30015G25KT 4000 SHRA SCT030CB
  • 151430Z AUTO 30014KT 9999 FEW035 09/04 Q1004 TEMPO 30015G25KT 4000 SHRA SCT030CB
  • 151400Z AUTO 31017KT 9999 SCT027 OVC033 09/04 Q1003 TEMPO 30015G25KT 4000 SHRA SCT030CB
  • 151330Z AUTO 30018KT 9999 BKN028 BKN034 BKN043 10/05 Q1003 TEMPO 30015G25KT 4000 SHRA SCT030CB
  • 151300Z AUTO 30017G27KT 9999 BKN026 BKN032 BKN038 10/05 Q1003 TEMPO 4000 SHRA SCT030CB

TAF TAF LFRI
Valid from the 15 at 12:00 until the 16 at 12:00 UTC


151100Z 1512/1612 29008KT 9999 SCT030
TEMPO 1512/1516 30015G25KT 4000 SHRA SCT030CB
PROB30 1512/1514 -TSRA
No reported NOTAMs for that airfield.



MET'MAP, your aeronautical weather chart ! - Copyright ORBIFLY December 2007 - Disclaimer

ORBIFLY MET'MAP TEAM :

Programming & Development : Alexandra Zaïnal
Concept & Development : Baudouin d'Aumeries
Co-Development & Prog : Marc-Olivier Méhu
Technical & hardware support : Manuel Goepfert

Contact : metmap@orbifly.com




SOURCES & CREDITS :

   NOAA